createdAt,value
2022-08-10T00:03:41.298Z,51.60
2022-08-10T00:08:43.802Z,51.50
2022-08-10T00:13:46.200Z,51.60
2022-08-10T00:18:49.002Z,52.00
2022-08-10T00:23:51.290Z,51.80
2022-08-10T00:28:53.479Z,51.40
2022-08-10T00:33:55.772Z,51.50
2022-08-10T00:38:57.962Z,51.40
2022-08-10T00:44:00.153Z,51.40
2022-08-10T00:49:02.753Z,51.50
2022-08-10T00:54:06.276Z,51.40
2022-08-10T00:59:08.464Z,51.40
2022-08-10T01:04:54.135Z,51.80
2022-08-10T01:09:55.706Z,51.40
2022-08-10T01:15:08.355Z,51.40
2022-08-10T01:20:30.470Z,51.50
2022-08-10T01:26:10.781Z,51.30
2022-08-10T01:31:04.007Z,51.40
2022-08-10T01:36:14.200Z,51.80
2022-08-10T01:41:24.655Z,51.50
2022-08-10T01:46:28.792Z,51.50
2022-08-10T01:51:39.964Z,51.00
2022-08-10T01:56:45.490Z,51.50
2022-08-10T02:01:51.672Z,51.50
2022-08-10T02:06:55.605Z,51.50
2022-08-10T02:12:08.967Z,51.50
2022-08-10T02:17:59.093Z,51.50
2022-08-10T02:22:39.364Z,51.60
2022-08-10T02:27:43.251Z,51.50
2022-08-10T02:32:52.585Z,51.60
2022-08-10T02:38:02.464Z,51.60
2022-08-10T02:45:19.061Z,51.60
2022-08-10T02:49:05.292Z,51.60
2022-08-10T02:54:12.385Z,51.60
2022-08-10T02:59:19.180Z,51.60
2022-08-10T03:04:55.995Z,51.70
2022-08-10T03:09:50.042Z,51.80
2022-08-10T03:14:53.712Z,51.70
2022-08-10T03:20:34.943Z,51.70
2022-08-10T03:25:23.518Z,52.00
2022-08-10T03:30:32.153Z,52.00
2022-08-10T03:35:36.226Z,51.70
2022-08-10T03:40:46.424Z,51.70
2022-08-10T03:45:54.870Z,52.10
2022-08-10T03:50:59.646Z,51.70
2022-08-10T03:56:26.948Z,52.10
2022-08-10T04:02:46.060Z,51.70
2022-08-10T04:06:51.333Z,51.70
2022-08-10T04:11:56.638Z,51.40
2022-08-10T04:17:01.917Z,51.80
2022-08-10T04:22:10.024Z,52.10
2022-08-10T04:27:12.930Z,51.80
2022-08-10T04:32:19.287Z,51.80
2022-08-10T04:37:23.023Z,51.80
2022-08-10T04:42:25.440Z,51.80
2022-08-10T04:47:57.780Z,52.20
2022-08-10T04:52:49.959Z,51.80
2022-08-10T04:57:52.170Z,51.80
2022-08-10T05:02:54.362Z,51.80
2022-08-10T05:07:57.066Z,51.80
2022-08-10T05:12:59.384Z,51.80
2022-08-10T05:18:10.039Z,51.80
2022-08-10T05:23:13.832Z,51.90
2022-08-10T05:28:16.978Z,51.80
2022-08-10T05:33:19.168Z,51.80
2022-08-10T05:38:23.713Z,51.80
2022-08-10T05:43:26.619Z,51.80
2022-08-10T05:48:53.917Z,51.80
2022-08-10T05:54:02.656Z,51.70
2022-08-10T05:59:08.742Z,52.00
2022-08-10T06:04:17.976Z,51.60
2022-08-10T06:09:21.744Z,51.60
2022-08-10T06:14:43.107Z,51.60
2022-08-10T06:20:00.517Z,51.60
2022-08-10T06:25:37.685Z,51.50
2022-08-10T06:30:28.565Z,51.80
2022-08-10T06:35:34.131Z,51.40
2022-08-10T06:40:42.874Z,51.40
2022-08-10T06:46:07.674Z,51.50
2022-08-10T06:51:20.309Z,51.40
2022-08-10T06:56:36.687Z,51.40
2022-08-10T07:01:51.579Z,51.40
2022-08-10T07:06:56.437Z,51.30
2022-08-10T07:12:08.061Z,51.30
2022-08-10T07:17:18.946Z,51.30
2022-08-10T07:23:50.647Z,51.80
2022-08-10T07:27:59.525Z,51.90
2022-08-10T07:33:05.532Z,52.50
2022-08-10T07:38:12.729Z,53.00
2022-08-10T07:43:17.382Z,52.90
2022-08-10T07:48:26.225Z,53.10
2022-08-10T07:53:42.741Z,52.80
2022-08-10T07:58:52.890Z,52.70
2022-08-10T08:04:05.275Z,52.50
2022-08-10T08:09:18.515Z,52.50
2022-08-10T08:14:22.512Z,52.80
2022-08-10T08:19:28.266Z,52.50
2022-08-10T08:24:41.457Z,52.30
2022-08-10T08:29:53.440Z,52.30
2022-08-10T08:35:06.456Z,52.40
2022-08-10T08:40:15.596Z,52.30
2022-08-10T08:46:01.012Z,52.20
2022-08-10T08:51:10.764Z,52.10
2022-08-10T08:56:30.869Z,52.00
2022-08-10T09:01:57.123Z,52.10
2022-08-10T09:08:02.100Z,52.10
2022-08-10T09:13:16.611Z,52.20
2022-08-10T09:18:33.852Z,52.10
2022-08-10T09:24:04.141Z,52.50
2022-08-10T09:29:14.457Z,52.00
2022-08-10T09:36:24.066Z,52.30
2022-08-10T09:40:58.879Z,52.10
2022-08-10T09:46:13.879Z,51.80
2022-08-10T09:51:50.768Z,51.70
2022-08-10T09:57:24.426Z,51.70
2022-08-10T10:02:38.994Z,52.00
2022-08-10T10:07:48.274Z,51.60
2022-08-10T10:13:03.277Z,51.90
2022-08-10T10:18:08.433Z,51.60
2022-08-10T10:23:32.422Z,51.80
2022-08-10T10:34:35.234Z,51.50
2022-08-10T10:39:44.685Z,51.50
2022-08-10T10:44:59.368Z,51.60
2022-08-10T10:50:15.167Z,52.60
2022-08-10T10:56:14.513Z,52.30
2022-08-10T11:01:21.122Z,51.40
2022-08-10T11:06:40.606Z,53.60
2022-08-10T11:12:00.177Z,52.40
2022-08-10T11:17:42.223Z,52.50
2022-08-10T11:23:02.323Z,54.50
2022-08-10T11:28:17.917Z,51.40
2022-08-10T11:34:03.938Z,53.90
2022-08-10T11:39:36.629Z,54.20
2022-08-10T11:44:59.659Z,52.40
2022-08-10T11:50:06.838Z,54.40
2022-08-10T11:55:21.714Z,51.10
2022-08-10T12:00:32.457Z,54.10
2022-08-10T12:05:52.003Z,52.60
2022-08-10T12:10:58.615Z,53.90
2022-08-10T12:16:07.109Z,53.20
2022-08-10T12:21:21.954Z,54.00
2022-08-10T12:26:42.324Z,53.10
2022-08-10T12:32:05.302Z,53.80
2022-08-10T12:37:17.610Z,53.40
2022-08-10T12:42:38.863Z,54.00
2022-08-10T12:48:03.538Z,54.50
2022-08-10T12:53:33.259Z,54.00
2022-08-10T12:58:59.690Z,54.60
2022-08-10T13:04:22.365Z,53.60
2022-08-10T13:09:27.883Z,52.50
2022-08-10T13:14:46.692Z,52.00
2022-08-10T13:19:56.161Z,51.70
2022-08-10T13:25:04.982Z,51.50
2022-08-10T13:30:09.436Z,51.30
2022-08-10T13:35:19.573Z,51.10
2022-08-10T13:40:23.834Z,51.50
2022-08-10T13:45:26.852Z,51.20
2022-08-10T13:50:35.660Z,51.20
2022-08-10T13:55:56.793Z,51.20
2022-08-10T14:01:02.514Z,51.20
2022-08-10T14:06:09.406Z,51.20
2022-08-10T14:11:15.876Z,50.90
2022-08-10T14:16:19.496Z,54.10
2022-08-10T14:21:22.400Z,54.20
2022-08-10T14:26:28.994Z,53.60
2022-08-10T14:31:34.464Z,53.60
2022-08-10T14:36:36.882Z,53.10
2022-08-10T14:42:04.169Z,53.70
2022-08-10T14:47:53.310Z,53.10
2022-08-10T14:52:29.473Z,53.30
2022-08-10T14:58:16.575Z,53.30
2022-08-10T15:03:03.480Z,53.60
2022-08-10T15:08:28.442Z,53.10
2022-08-10T15:13:35.848Z,53.00
2022-08-10T15:18:58.371Z,53.00
2022-08-10T15:24:09.969Z,53.10
2022-08-10T15:29:25.763Z,53.30
2022-08-10T15:35:05.710Z,52.70
2022-08-10T15:40:25.729Z,52.50
2022-08-10T15:45:40.170Z,52.50
2022-08-10T15:50:48.970Z,52.40
2022-08-10T15:55:59.149Z,52.30
2022-08-10T16:02:04.534Z,52.00
2022-08-10T16:07:13.519Z,52.10
2022-08-10T16:12:41.291Z,52.00
2022-08-10T16:17:59.344Z,52.00
2022-08-10T16:23:11.665Z,52.20
2022-08-10T16:28:23.316Z,51.80
2022-08-10T16:33:54.223Z,51.80
2022-08-10T16:38:59.248Z,52.10
2022-08-10T16:44:03.819Z,51.70
2022-08-10T16:49:07.949Z,51.60
2022-08-10T16:54:13.528Z,51.60
2022-08-10T16:59:20.819Z,51.60
2022-08-10T17:04:27.107Z,51.70
2022-08-10T17:09:32.520Z,51.60
2022-08-10T17:14:38.450Z,51.50
2022-08-10T17:19:47.111Z,51.60
2022-08-10T17:24:54.806Z,51.50
2022-08-10T17:30:04.873Z,51.70
2022-08-10T17:35:14.206Z,51.20
2022-08-10T17:40:21.635Z,51.30
2022-08-10T17:45:47.881Z,51.20
2022-08-10T17:50:52.521Z,51.20
2022-08-10T17:55:57.679Z,51.20
2022-08-10T18:01:41.878Z,51.10
2022-08-10T18:06:27.238Z,51.20
2022-08-10T18:11:34.468Z,51.30
2022-08-10T18:16:41.889Z,51.30
2022-08-10T18:21:47.927Z,51.30
2022-08-10T18:26:53.599Z,51.30
2022-08-10T18:31:59.065Z,51.60
2022-08-10T18:37:06.077Z,51.40
2022-08-10T18:42:21.524Z,51.50
2022-08-10T18:48:08.569Z,51.60
2022-08-10T18:53:19.558Z,51.50
2022-08-10T18:59:00.765Z,51.60
2022-08-10T19:04:34.754Z,51.80
2022-08-10T19:10:11.297Z,51.90
2022-08-10T19:15:42.172Z,51.80
2022-08-10T19:21:08.004Z,51.80
2022-08-10T19:26:44.015Z,52.30
2022-08-10T19:32:05.574Z,52.00
2022-08-10T19:37:32.759Z,52.30
2022-08-10T19:42:43.861Z,52.00
2022-08-10T19:47:59.448Z,52.00
2022-08-10T19:53:08.805Z,52.60
2022-08-10T19:58:26.744Z,52.00
2022-08-10T20:04:17.151Z,52.60
2022-08-10T20:09:56.701Z,52.10
2022-08-10T20:15:20.898Z,52.30
2022-08-10T20:20:44.749Z,52.10
2022-08-10T20:26:07.830Z,52.10
2022-08-10T20:31:25.584Z,52.10
2022-08-10T20:36:43.637Z,52.50
2022-08-10T20:42:29.919Z,52.10
2022-08-10T20:47:53.746Z,52.20
2022-08-10T20:53:33.157Z,52.60
2022-08-10T20:59:08.821Z,52.10
2022-08-10T21:05:00.124Z,52.70
2022-08-10T21:10:06.938Z,52.20
2022-08-10T21:16:02.002Z,52.20
2022-08-10T21:21:42.788Z,52.30
2022-08-10T21:26:50.519Z,52.90
2022-08-10T21:31:53.701Z,52.50
2022-08-10T21:37:12.776Z,52.50
2022-08-10T21:43:02.038Z,52.20
2022-08-10T21:48:57.815Z,52.60
2022-08-10T21:54:35.453Z,52.30
2022-08-10T22:05:55.968Z,52.30
2022-08-10T22:11:20.248Z,52.20
2022-08-10T22:17:05.744Z,52.30
2022-08-10T22:23:19.538Z,52.30
2022-08-10T22:28:48.758Z,52.20
2022-08-10T22:34:27.497Z,52.30
2022-08-10T22:40:22.337Z,52.20
2022-08-10T22:45:45.161Z,52.20
2022-08-10T22:50:58.234Z,52.20
2022-08-10T22:56:20.231Z,52.30
2022-08-10T23:01:41.868Z,52.80
2022-08-10T23:07:13.217Z,52.10
2022-08-10T23:12:41.509Z,52.50
2022-08-10T23:18:17.974Z,52.20
2022-08-10T23:23:29.679Z,52.50
2022-08-10T23:28:38.925Z,52.20
2022-08-10T23:34:02.609Z,52.20
2022-08-10T23:39:27.531Z,52.20
2022-08-10T23:44:49.690Z,52.50
2022-08-10T23:49:54.719Z,52.30
2022-08-10T23:55:07.300Z,52.80
